Hlavní strana
METAR-TAF:

METAR-TAF

Letiště :

Letiště Nội Bài

Hanoj, Vietnam

zeměpisná šířka: 21-01N, zeměpisná délka: 105-48E, výška: 6 m

Aktuální stav počasí

Zpráva byla vytvořena před 36 minutami, v 22:00 UTC
Severní vítr 4 kt
Teplota 13°C
Vlhkost vzduchu 72%
Tlak 1026 hPa
Viditelnost 10 km a více
Skoro jasno ve výšce 3000 ft
Oblačno až skoro zataženo ve výšce 4500 ft

METAR: VVNB 132200Z 36004KT 9999 FEW030 BKN045 13/08 Q1026 NOSIG

Čas: 05:36 (22:36 UTC)

Předpověď počasí

Zpráva byla vytvořena před 5 hodinami a 36 minutami, v 17:00 UTC
Předpověď platná od 13 v 18 UTC do 14 v 18 UTC
Severoseverovýchodní vítr 6 kt
Viditelnost 10 km a více
Skoro jasno ve výšce 2500 ft

TAF: VVNB 131700Z 1318/1418 02006KT 9999 FEW025

Stav a předpovědi počasí z více než 4 000 letišť (zprávy METAR a TAF).

Červené a žluté tečky na mapě představují dostupné meteorologické stanice.

Když kurzor umístíte na tečku, zobrazí se název stanice.

Pak kliknutím zobrazíte stav a předpověď počasí.

Chcete-li změnit mapu, kliknutím na zelené tlačítko se znaménkem +mapu přiblížíte, kliknutím na zelené tlačítko se znaménkem – mapu oddálíte a kliknutím na zelené šipky přejdete na sousední mapy.


METAR-TAF: